Kidlington, United Kingdom
Current Conditions -  °F | °C
As of 9:50 AM on Saturday 29 Nov 2014 (Local Time) from EGTK Reporting Station
Haze Haze  
Wind Chill:   Ceiling: Unl
Heat Index:   Visibility: 2.8mi
Dew Point:   Wind: 5mph
Humidity: 100%   Direction: 20°NNE
Pressure: 29.83"   Gusts: NA
Location:  51.82°N, 1.29°W
Report Text: EGTK 290950Z 02004KT 4500 BR NSC 09/09 Q1010
Loading
Personal Weather Stations






























Interactive Weather Map New forecast layout! Learn more

10-Day Weather Forecast

Advertisements
Track Severe Weather on mobile